Mosby, Missouri
Current Conditions -  °F | °C
As of 5:15 PM on Thursday 18 Dec 2014 (Local Time) from KGPH Reporting Station
Overcast Overcast  
Wind Chill: 32°   Ceiling: 1200
Heat Index: 32°   Visibility: 10mi
Dew Point: 30°   Wind: 3mph
Humidity: 93%   Direction: 50°NE
Pressure: 30.22"   Gusts: NA
Location:  39.32°N, 94.29°W
Report Text: KGPH 182315Z AUTO 05003KT 10SM OVC012 00/M01 A3022 RMK AO2
Loading
Personal Weather Stations






























Interactive Weather Map New forecast layout! Learn more

10-Day Weather Forecast

Advertisements
Track Severe Weather on mobile